createdAt,value
2022-08-26T00:00:43.104Z,0.00
2022-08-26T00:01:44.243Z,0.00
2022-08-26T00:02:43.085Z,0.00
2022-08-26T00:03:43.109Z,0.00
2022-08-26T00:04:43.085Z,0.00
2022-08-26T00:05:43.042Z,0.00
2022-08-26T00:06:46.164Z,0.00
2022-08-26T00:07:43.408Z,0.00
2022-08-26T00:08:43.007Z,0.00
2022-08-26T00:09:43.035Z,0.00
2022-08-26T00:10:42.991Z,0.00
2022-08-26T00:11:42.974Z,0.00
2022-08-26T00:12:42.967Z,0.00
2022-08-26T00:13:47.815Z,0.00
2022-08-26T00:14:43.985Z,0.00
2022-08-26T00:15:42.959Z,0.00
2022-08-26T00:16:47.265Z,0.00
2022-08-26T00:17:43.906Z,0.00
2022-08-26T00:18:42.894Z,0.00
2022-08-26T00:19:42.928Z,0.00
2022-08-26T00:20:42.883Z,0.00
2022-08-26T00:21:42.866Z,0.00
2022-08-26T00:22:42.847Z,0.00
2022-08-26T00:23:42.861Z,0.00
2022-08-26T00:24:47.915Z,0.00
2022-08-26T00:25:43.828Z,0.00
2022-08-26T00:26:42.966Z,0.00
2022-08-26T00:27:42.792Z,0.00
2022-08-26T00:28:42.782Z,0.00
2022-08-26T00:29:42.784Z,0.00
2022-08-26T00:30:42.801Z,0.00
2022-08-26T00:31:42.809Z,0.00
2022-08-26T00:32:44.019Z,0.00
2022-08-26T00:33:42.735Z,0.00
2022-08-26T00:34:42.718Z,0.00
2022-08-26T00:35:43.815Z,0.00
2022-08-26T00:36:42.695Z,0.00
2022-08-26T00:37:42.688Z,0.00
2022-08-26T00:38:42.694Z,0.00
2022-08-26T00:39:42.658Z,0.00
2022-08-26T00:40:42.688Z,0.00
2022-08-26T00:41:42.654Z,0.00
2022-08-26T00:42:46.044Z,0.00
2022-08-26T00:43:46.311Z,0.00
2022-08-26T00:44:43.595Z,0.00
2022-08-26T00:45:42.749Z,0.00
2022-08-26T00:46:46.680Z,0.00
2022-08-26T00:47:42.564Z,0.00
2022-08-26T00:48:42.551Z,0.00
2022-08-26T00:49:42.556Z,0.00
2022-08-26T00:50:42.569Z,0.00
2022-08-26T00:51:42.530Z,0.00
2022-08-26T00:52:42.517Z,0.00
2022-08-26T00:53:42.518Z,0.00
2022-08-26T00:54:42.505Z,0.00
2022-08-26T00:55:42.524Z,0.00
2022-08-26T00:56:42.457Z,0.00
2022-08-26T00:57:42.465Z,0.00
2022-08-26T00:58:42.436Z,0.00
2022-08-26T00:59:42.446Z,0.00
2022-08-26T01:00:42.515Z,0.00
2022-08-26T01:01:42.425Z,0.00
2022-08-26T01:02:46.917Z,0.00
2022-08-26T01:03:43.388Z,0.00
2022-08-26T01:04:42.364Z,0.00
2022-08-26T01:05:42.416Z,0.00
2022-08-26T01:06:42.361Z,0.00
2022-08-26T01:07:42.359Z,0.00
2022-08-26T01:08:42.332Z,0.00
2022-08-26T01:09:42.318Z,0.00
2022-08-26T01:10:42.343Z,0.00
2022-08-26T01:11:42.296Z,0.00
2022-08-26T01:12:42.280Z,0.00
2022-08-26T01:13:42.279Z,0.00
2022-08-26T01:14:42.259Z,0.00
2022-08-26T01:15:42.289Z,0.00
2022-08-26T01:16:42.452Z,0.00
2022-08-26T01:17:42.241Z,0.00
2022-08-26T01:18:42.202Z,0.00
2022-08-26T01:19:42.192Z,0.00
2022-08-26T01:20:42.218Z,0.00
2022-08-26T01:21:42.188Z,0.00
2022-08-26T01:22:42.167Z,0.00
2022-08-26T01:23:42.169Z,0.00
2022-08-26T01:24:42.147Z,0.00
2022-08-26T01:25:43.089Z,0.00
2022-08-26T01:26:42.118Z,0.00
2022-08-26T01:27:42.127Z,0.00
2022-08-26T01:28:42.118Z,0.00
2022-08-26T01:29:42.096Z,0.00
2022-08-26T01:30:42.117Z,0.00
2022-08-26T01:31:42.112Z,0.00
2022-08-26T01:32:42.075Z,0.00
2022-08-26T01:33:42.545Z,0.00
2022-08-26T01:34:42.041Z,0.00
2022-08-26T01:35:42.065Z,0.00
2022-08-26T01:36:41.996Z,0.00
2022-08-26T01:37:42.003Z,0.00
2022-08-26T01:38:41.989Z,0.00
2022-08-26T01:39:42.022Z,0.00
2022-08-26T01:40:41.998Z,0.00
2022-08-26T01:41:44.018Z,0.00
2022-08-26T01:42:41.938Z,0.00
2022-08-26T01:43:41.923Z,0.00
2022-08-26T01:44:41.918Z,0.00
2022-08-26T01:45:42.055Z,0.00
2022-08-26T01:46:41.896Z,0.00
2022-08-26T01:47:41.890Z,0.00
2022-08-26T01:48:41.884Z,0.00
2022-08-26T01:49:41.876Z,0.00
2022-08-26T01:50:41.918Z,0.00
2022-08-26T01:51:41.839Z,0.00
2022-08-26T01:52:41.807Z,0.00
2022-08-26T01:53:41.854Z,0.00
2022-08-26T01:54:41.789Z,0.00
2022-08-26T01:55:41.836Z,0.00
2022-08-26T01:56:41.777Z,0.00
2022-08-26T01:57:41.775Z,0.00
2022-08-26T01:58:41.764Z,0.00
2022-08-26T01:59:41.751Z,0.00
2022-08-26T02:00:41.795Z,0.00
2022-08-26T02:01:41.720Z,0.00
2022-08-26T02:02:41.715Z,0.00
2022-08-26T02:03:42.228Z,0.00
2022-08-26T02:04:41.763Z,0.00
2022-08-26T02:05:41.711Z,0.00
2022-08-26T02:06:41.657Z,0.00
2022-08-26T02:07:41.655Z,0.00
2022-08-26T02:08:41.645Z,0.00
2022-08-26T02:09:41.730Z,0.00
2022-08-26T02:10:41.652Z,0.00
2022-08-26T02:11:41.612Z,0.00
2022-08-26T02:12:41.588Z,0.00
2022-08-26T02:13:41.577Z,0.00
2022-08-26T02:14:43.740Z,0.00
2022-08-26T02:15:41.600Z,0.00
2022-08-26T02:16:42.283Z,0.00
2022-08-26T02:17:41.535Z,0.00
2022-08-26T02:18:41.540Z,0.00
2022-08-26T02:19:41.523Z,0.00
2022-08-26T02:20:41.554Z,0.00
2022-08-26T02:21:41.494Z,0.00
2022-08-26T02:22:41.480Z,0.00
2022-08-26T02:23:41.460Z,0.00
2022-08-26T02:24:41.435Z,0.00
2022-08-26T02:25:41.467Z,0.00
2022-08-26T02:26:41.444Z,0.00
2022-08-26T02:27:41.430Z,0.00
2022-08-26T02:28:41.403Z,0.00
2022-08-26T02:29:41.395Z,0.00
2022-08-26T02:30:41.436Z,0.00
2022-08-26T02:31:41.426Z,0.00
2022-08-26T02:32:41.453Z,0.00
2022-08-26T02:33:43.018Z,0.00
2022-08-26T02:34:41.340Z,0.00
2022-08-26T02:35:41.359Z,0.00
2022-08-26T02:36:41.332Z,0.00
2022-08-26T02:37:41.823Z,0.00
2022-08-26T02:38:41.293Z,0.00
2022-08-26T02:39:41.269Z,0.00
2022-08-26T02:40:41.326Z,0.00
2022-08-26T02:41:45.245Z,0.00
2022-08-26T02:42:41.249Z,0.00
2022-08-26T02:43:41.243Z,0.00
2022-08-26T02:44:41.230Z,0.00
2022-08-26T02:45:41.248Z,0.00
2022-08-26T02:46:41.246Z,0.00
2022-08-26T02:47:42.166Z,0.00
2022-08-26T02:48:41.179Z,0.00
2022-08-26T02:49:41.160Z,0.00
2022-08-26T02:50:41.199Z,0.00
2022-08-26T02:51:41.143Z,0.00
2022-08-26T02:52:41.124Z,0.00
2022-08-26T02:53:41.110Z,0.00
2022-08-26T02:54:41.113Z,0.00
2022-08-26T02:55:41.132Z,0.00
2022-08-26T02:56:41.080Z,0.00
2022-08-26T02:57:41.056Z,0.00
2022-08-26T02:58:41.048Z,0.00
2022-08-26T02:59:41.042Z,0.00
2022-08-26T03:00:52.822Z,0.00
2022-08-26T03:01:42.034Z,0.00
2022-08-26T03:02:41.010Z,0.00
2022-08-26T03:03:40.990Z,0.00
2022-08-26T03:04:40.985Z,0.00
2022-08-26T03:05:41.998Z,0.00
2022-08-26T03:06:41.512Z,0.00
2022-08-26T03:07:40.953Z,0.00
2022-08-26T03:08:40.940Z,0.00
2022-08-26T03:09:40.935Z,0.00
2022-08-26T03:10:40.961Z,0.00
2022-08-26T03:11:40.903Z,0.00
2022-08-26T03:12:40.898Z,0.00
2022-08-26T03:13:40.897Z,0.00
2022-08-26T03:14:40.875Z,0.00
2022-08-26T03:15:40.894Z,0.00
2022-08-26T03:16:40.847Z,0.00
2022-08-26T03:17:40.826Z,0.00
2022-08-26T03:18:40.805Z,0.00
2022-08-26T03:19:40.805Z,0.00
2022-08-26T03:20:40.825Z,0.00
2022-08-26T03:21:40.785Z,0.00
2022-08-26T03:22:40.773Z,0.00
2022-08-26T03:23:40.756Z,0.00
2022-08-26T03:24:40.738Z,0.00
2022-08-26T03:25:40.749Z,0.00
2022-08-26T03:26:40.728Z,4.00
2022-08-26T03:27:41.715Z,4.00
2022-08-26T03:28:40.697Z,4.00
2022-08-26T03:29:40.680Z,0.00
2022-08-26T03:30:45.001Z,4.00
2022-08-26T03:31:40.712Z,4.00
2022-08-26T03:32:41.491Z,8.00
2022-08-26T03:33:40.643Z,4.00
2022-08-26T03:34:40.630Z,8.00
2022-08-26T03:35:40.665Z,8.00
2022-08-26T03:36:41.616Z,8.00
2022-08-26T03:37:40.584Z,8.00
2022-08-26T03:38:40.591Z,12.00
2022-08-26T03:39:40.556Z,16.00
2022-08-26T03:40:40.600Z,16.00
2022-08-26T03:41:40.543Z,20.00
2022-08-26T03:42:40.530Z,24.00
2022-08-26T03:43:40.584Z,32.00
2022-08-26T03:44:42.223Z,36.00
2022-08-26T03:45:40.522Z,40.00
2022-08-26T03:46:40.517Z,48.00
2022-08-26T03:47:40.475Z,52.00
2022-08-26T03:48:40.466Z,64.00
2022-08-26T03:49:40.449Z,72.00
2022-08-26T03:50:40.475Z,76.00
2022-08-26T03:51:40.415Z,88.00
2022-08-26T03:52:43.681Z,100.00
2022-08-26T03:53:40.393Z,116.00
2022-08-26T03:54:40.413Z,128.00
2022-08-26T03:55:40.414Z,148.00
2022-08-26T03:56:40.356Z,164.00
2022-08-26T03:57:40.341Z,184.00
2022-08-26T03:58:42.833Z,204.00
2022-08-26T03:59:41.339Z,224.00
2022-08-26T04:00:40.384Z,252.00
2022-08-26T04:01:40.337Z,280.00
2022-08-26T04:02:40.309Z,312.00
2022-08-26T04:03:40.263Z,344.00
2022-08-26T04:04:40.271Z,384.00
2022-08-26T04:05:40.293Z,428.00
2022-08-26T04:06:40.257Z,472.00
2022-08-26T04:07:40.248Z,528.00
2022-08-26T04:08:40.219Z,584.00
2022-08-26T04:09:40.204Z,644.00
2022-08-26T04:10:40.242Z,712.00
2022-08-26T04:11:40.182Z,784.00
2022-08-26T04:12:40.176Z,856.00
2022-08-26T04:13:40.151Z,924.00
2022-08-26T04:14:40.156Z,988.00
2022-08-26T04:15:40.176Z,1056.00
2022-08-26T04:16:40.133Z,1124.00
2022-08-26T04:17:40.116Z,1204.00
2022-08-26T04:18:40.608Z,1280.00
2022-08-26T04:19:41.093Z,1356.00
2022-08-26T04:20:40.114Z,1440.00
2022-08-26T04:21:40.060Z,1524.00
2022-08-26T04:22:40.067Z,1612.00
2022-08-26T04:23:46.965Z,1704.00
2022-08-26T04:24:41.029Z,1800.00
2022-08-26T04:25:40.508Z,1892.00
2022-08-26T04:26:42.616Z,1984.00
2022-08-26T04:27:40.315Z,2080.00
2022-08-26T04:28:39.992Z,2184.00
2022-08-26T04:29:39.968Z,2284.00
2022-08-26T04:30:40.013Z,2396.00
2022-08-26T04:31:39.989Z,2512.00
2022-08-26T04:32:39.962Z,2620.00
2022-08-26T04:33:41.647Z,2716.00
2022-08-26T04:34:39.917Z,2796.00
2022-08-26T04:35:39.927Z,2856.00
2022-08-26T04:36:39.916Z,2908.00
2022-08-26T04:37:39.873Z,2964.00
2022-08-26T04:38:39.864Z,3036.00
2022-08-26T04:39:39.854Z,3108.00
2022-08-26T04:40:39.885Z,3188.00
2022-08-26T04:41:40.845Z,3260.00
2022-08-26T04:42:39.831Z,3320.00
2022-08-26T04:43:39.820Z,3368.00
2022-08-26T04:44:39.806Z,3384.00
2022-08-26T04:45:39.828Z,3384.00
2022-08-26T04:46:43.954Z,3380.00
2022-08-26T04:47:39.794Z,3380.00
2022-08-26T04:48:39.762Z,3360.00
2022-08-26T04:49:39.757Z,3336.00
2022-08-26T04:50:39.792Z,3312.00
2022-08-26T04:51:39.715Z,3332.00
2022-08-26T04:52:39.715Z,3436.00
2022-08-26T04:53:39.706Z,3584.00
2022-08-26T04:54:42.035Z,3752.00
2022-08-26T04:55:42.830Z,3872.00
2022-08-26T04:56:40.675Z,3960.00
2022-08-26T04:57:39.651Z,4116.00
2022-08-26T04:58:39.677Z,4352.00
2022-08-26T04:59:39.662Z,4700.00
2022-08-26T05:00:39.683Z,5124.00
2022-08-26T05:01:39.852Z,5660.00
2022-08-26T05:02:39.602Z,6288.00
2022-08-26T05:03:39.630Z,6772.00
2022-08-26T05:04:39.588Z,7048.00
2022-08-26T05:05:39.583Z,7068.00
2022-08-26T05:06:39.544Z,7000.00
2022-08-26T05:07:39.527Z,6916.00
2022-08-26T05:08:39.543Z,6820.00
2022-08-26T05:09:39.503Z,6708.00
2022-08-26T05:10:39.542Z,6624.00
2022-08-26T05:11:39.507Z,6596.00
2022-08-26T05:12:39.482Z,6676.00
2022-08-26T05:13:39.486Z,6832.00
2022-08-26T05:14:39.461Z,7024.00
2022-08-26T05:15:39.521Z,7228.00
2022-08-26T05:16:40.475Z,7348.00
2022-08-26T05:17:39.431Z,7424.00
2022-08-26T05:18:39.424Z,7512.00
2022-08-26T05:19:40.432Z,7652.00
2022-08-26T05:20:39.429Z,7800.00
2022-08-26T05:21:39.385Z,7924.00
2022-08-26T05:22:39.365Z,7976.00
2022-08-26T05:23:39.363Z,7932.00
2022-08-26T05:24:39.353Z,7868.00
2022-08-26T05:25:39.383Z,7808.00
2022-08-26T05:26:39.333Z,7752.00
2022-08-26T05:27:39.316Z,7704.00
2022-08-26T05:28:39.309Z,7660.00
2022-08-26T05:29:39.283Z,7640.00
2022-08-26T05:30:39.310Z,7664.00
2022-08-26T05:31:39.281Z,7720.00
2022-08-26T05:32:39.274Z,7792.00
2022-08-26T05:33:41.401Z,7852.00
2022-08-26T05:34:39.223Z,7900.00
2022-08-26T05:35:39.301Z,7948.00
2022-08-26T05:36:39.233Z,7988.00
2022-08-26T05:37:39.197Z,8036.00
2022-08-26T05:38:39.185Z,8116.00
2022-08-26T05:39:39.163Z,8208.00
2022-08-26T05:40:39.185Z,8288.00
2022-08-26T05:41:39.198Z,8368.00
2022-08-26T05:42:39.153Z,8460.00
2022-08-26T05:43:39.131Z,8548.00
2022-08-26T05:44:53.623Z,8624.00
2022-08-26T05:45:44.873Z,8712.00
2022-08-26T05:46:40.268Z,8804.00
2022-08-26T05:47:39.086Z,8896.00
2022-08-26T05:48:39.075Z,8988.00
2022-08-26T05:49:51.310Z,9072.00
2022-08-26T05:50:40.068Z,9144.00
2022-08-26T05:51:39.064Z,9204.00
2022-08-26T05:52:39.037Z,9276.00
2022-08-26T05:53:39.003Z,9344.00
2022-08-26T05:54:39.024Z,9460.00
2022-08-26T05:55:39.005Z,9600.00
2022-08-26T05:56:39.044Z,9732.00
2022-08-26T05:57:42.248Z,9876.00
2022-08-26T05:58:38.952Z,10064.00
2022-08-26T05:59:38.959Z,10304.00
2022-08-26T06:00:38.944Z,10532.00
2022-08-26T06:01:38.988Z,10760.00
2022-08-26T06:02:38.968Z,10948.00
2022-08-26T06:03:38.891Z,11160.00
2022-08-26T06:04:38.905Z,11412.00
2022-08-26T06:05:39.269Z,11704.00
2022-08-26T06:06:38.914Z,12036.00
2022-08-26T06:07:38.865Z,12336.00
2022-08-26T06:08:38.866Z,12544.00
2022-08-26T06:09:38.813Z,12700.00
2022-08-26T06:10:38.822Z,12884.00
2022-08-26T06:11:38.848Z,13136.00
2022-08-26T06:12:38.830Z,13392.00
2022-08-26T06:13:38.801Z,13692.00
2022-08-26T06:14:38.782Z,14032.00
2022-08-26T06:15:38.823Z,14420.00
2022-08-26T06:16:38.798Z,14860.00
2022-08-26T06:17:38.784Z,15192.00
2022-08-26T06:18:38.747Z,15412.00
2022-08-26T06:19:38.722Z,15428.00
2022-08-26T06:20:38.740Z,15480.00
2022-08-26T06:21:38.754Z,15648.00
2022-08-26T06:22:38.713Z,15792.00
2022-08-26T06:23:38.695Z,15900.00
2022-08-26T06:24:38.695Z,15952.00
2022-08-26T06:25:38.662Z,15956.00
2022-08-26T06:26:38.702Z,15972.00
2022-08-26T06:27:38.696Z,16184.00
2022-08-26T06:28:38.635Z,16524.00
2022-08-26T06:29:38.637Z,17000.00
2022-08-26T06:30:38.606Z,17532.00
2022-08-26T06:31:40.002Z,18304.00
2022-08-26T06:32:38.586Z,18880.00
2022-08-26T06:33:38.581Z,19360.00
2022-08-26T06:34:38.573Z,19488.00
2022-08-26T06:35:38.549Z,19200.00
2022-08-26T06:36:38.610Z,18624.00
2022-08-26T06:37:38.519Z,17856.00
2022-08-26T06:38:38.550Z,17416.00
2022-08-26T06:39:41.096Z,17228.00
2022-08-26T06:40:38.479Z,17136.00
2022-08-26T06:41:42.778Z,17032.00
2022-08-26T06:42:39.458Z,16776.00
2022-08-26T06:43:38.470Z,16404.00
2022-08-26T06:44:38.459Z,16032.00
2022-08-26T06:45:38.443Z,15736.00
2022-08-26T06:46:38.510Z,15552.00
2022-08-26T06:47:38.432Z,15548.00
2022-08-26T06:48:38.429Z,15708.00
2022-08-26T06:49:38.412Z,15852.00
2022-08-26T06:50:38.393Z,15936.00
2022-08-26T06:51:38.404Z,16044.00
2022-08-26T06:52:38.347Z,16120.00
2022-08-26T06:53:38.372Z,16164.00
2022-08-26T06:54:38.793Z,16172.00
2022-08-26T06:55:38.353Z,16192.00
2022-08-26T06:56:38.352Z,16304.00
2022-08-26T06:57:39.745Z,16476.00
2022-08-26T06:58:38.313Z,16724.00
2022-08-26T06:59:38.275Z,16956.00
2022-08-26T07:00:38.305Z,17108.00
2022-08-26T07:01:38.434Z,17176.00
2022-08-26T07:02:38.338Z,17160.00
2022-08-26T07:03:39.824Z,17088.00
2022-08-26T07:04:38.221Z,17040.00
2022-08-26T07:05:38.245Z,17060.00
2022-08-26T07:06:39.067Z,17116.00
2022-08-26T07:07:38.192Z,17164.00
2022-08-26T07:08:38.210Z,17156.00
2022-08-26T07:09:38.187Z,17092.00
2022-08-26T07:10:38.128Z,17080.00
2022-08-26T07:11:38.185Z,17160.00
2022-08-26T07:12:38.179Z,17316.00
2022-08-26T07:13:38.121Z,17596.00
2022-08-26T07:14:38.367Z,17928.00
2022-08-26T07:15:38.164Z,18280.00
2022-08-26T07:16:38.164Z,18720.00
2022-08-26T07:17:38.106Z,18880.00
2022-08-26T07:18:38.120Z,18944.00
2022-08-26T07:19:38.072Z,18752.00
2022-08-26T07:20:38.063Z,18624.00
2022-08-26T07:21:38.101Z,18280.00
2022-08-26T07:22:38.051Z,18104.00
2022-08-26T07:23:38.044Z,17940.00
2022-08-26T07:24:37.997Z,17840.00
2022-08-26T07:25:38.026Z,17796.00
2022-08-26T07:26:38.033Z,17788.00
2022-08-26T07:27:37.965Z,17784.00
2022-08-26T07:28:37.971Z,17804.00
2022-08-26T07:29:37.964Z,17824.00
2022-08-26T07:30:38.012Z,17868.00
2022-08-26T07:31:39.463Z,17844.00
2022-08-26T07:32:37.909Z,17824.00
2022-08-26T07:33:37.916Z,17812.00
2022-08-26T07:34:37.921Z,17816.00
2022-08-26T07:35:37.880Z,17836.00
2022-08-26T07:36:37.915Z,17768.00
2022-08-26T07:37:39.163Z,17584.00
2022-08-26T07:38:37.853Z,17544.00
2022-08-26T07:39:37.823Z,17576.00
2022-08-26T07:40:37.812Z,17536.00
2022-08-26T07:41:37.793Z,17388.00
2022-08-26T07:42:37.860Z,17160.00
2022-08-26T07:43:37.800Z,16848.00
2022-08-26T07:44:37.796Z,16980.00
2022-08-26T07:45:37.812Z,17704.00
2022-08-26T07:46:37.769Z,17872.00
2022-08-26T07:47:37.811Z,17960.00
2022-08-26T07:48:37.741Z,17960.00
2022-08-26T07:49:37.756Z,18304.00
2022-08-26T07:50:50.105Z,18688.00
2022-08-26T07:51:38.716Z,18528.00
2022-08-26T07:52:37.730Z,18056.00
2022-08-26T07:53:37.697Z,18720.00
2022-08-26T07:54:37.697Z,19456.00
2022-08-26T07:55:37.661Z,19520.00
2022-08-26T07:56:37.660Z,19744.00
2022-08-26T07:57:37.664Z,20416.00
2022-08-26T07:58:37.615Z,20736.00
2022-08-26T07:59:37.648Z,20352.00
2022-08-26T08:00:37.604Z,19520.00
2022-08-26T08:01:37.679Z,18848.00
2022-08-26T08:02:37.627Z,18848.00
2022-08-26T08:03:37.589Z,18880.00
2022-08-26T08:04:37.597Z,19040.00
2022-08-26T08:05:37.594Z,20416.00
2022-08-26T08:06:37.573Z,22144.00
2022-08-26T08:07:44.145Z,23008.00
2022-08-26T08:08:38.532Z,24128.00
2022-08-26T08:09:37.496Z,25408.00
2022-08-26T08:10:37.475Z,26464.00
2022-08-26T08:11:37.481Z,27392.00
2022-08-26T08:12:37.504Z,27744.00
2022-08-26T08:13:37.461Z,27872.00
2022-08-26T08:14:37.482Z,28128.00
2022-08-26T08:15:37.442Z,28640.00
2022-08-26T08:16:42.380Z,29280.00
2022-08-26T08:17:38.501Z,29568.00
2022-08-26T08:18:37.412Z,30080.00
2022-08-26T08:19:39.187Z,30592.00
2022-08-26T08:20:37.378Z,31072.00
2022-08-26T08:21:37.427Z,31136.00
2022-08-26T08:22:37.435Z,31456.00
2022-08-26T08:23:37.369Z,31744.00
2022-08-26T08:24:37.402Z,31936.00
2022-08-26T08:25:37.344Z,32288.00
2022-08-26T08:26:37.314Z,32704.00
2022-08-26T08:27:37.364Z,32864.00
2022-08-26T08:28:37.337Z,33184.00
2022-08-26T08:29:37.305Z,33536.00
2022-08-26T08:30:37.320Z,33792.00
2022-08-26T08:31:56.997Z,33856.00
2022-08-26T08:32:38.278Z,34176.00
2022-08-26T08:33:37.246Z,34272.00
2022-08-26T08:34:37.320Z,34528.00
2022-08-26T08:35:37.229Z,34400.00
2022-08-26T08:36:37.216Z,34880.00
2022-08-26T08:37:37.265Z,35040.00
2022-08-26T08:38:37.210Z,35136.00
2022-08-26T08:39:37.218Z,35328.00
2022-08-26T08:40:37.224Z,35552.00
2022-08-26T08:41:37.149Z,35584.00
2022-08-26T08:42:37.169Z,36000.00
2022-08-26T08:43:37.824Z,36256.00
2022-08-26T08:44:37.118Z,36256.00
2022-08-26T08:45:37.363Z,36544.00
2022-08-26T08:46:37.107Z,36832.00
2022-08-26T08:47:37.201Z,36960.00
2022-08-26T08:48:37.075Z,37248.00
2022-08-26T08:49:37.092Z,37248.00
2022-08-26T08:50:37.067Z,37440.00
2022-08-26T08:51:37.074Z,37728.00
2022-08-26T08:52:37.101Z,37856.00
2022-08-26T08:53:37.061Z,37792.00
2022-08-26T08:54:37.065Z,37824.00
2022-08-26T08:55:37.001Z,37952.00
2022-08-26T08:56:37.016Z,38464.00
2022-08-26T08:57:37.032Z,38752.00
2022-08-26T08:58:36.975Z,39040.00
2022-08-26T08:59:38.278Z,39104.00
2022-08-26T09:00:39.867Z,38976.00
2022-08-26T09:01:37.036Z,38816.00
2022-08-26T09:02:37.077Z,39136.00
2022-08-26T09:03:36.951Z,39168.00
2022-08-26T09:04:36.906Z,39584.00
2022-08-26T09:05:38.548Z,39616.00
2022-08-26T09:06:36.918Z,40128.00
2022-08-26T09:07:37.002Z,40480.00
2022-08-26T09:08:36.930Z,40704.00
2022-08-26T09:09:36.890Z,40832.00
2022-08-26T09:10:36.865Z,40864.00
2022-08-26T09:11:36.841Z,40768.00
2022-08-26T09:12:36.849Z,41216.00
2022-08-26T09:13:36.809Z,41344.00
2022-08-26T09:14:36.825Z,41632.00
2022-08-26T09:15:36.818Z,41824.00
2022-08-26T09:16:36.819Z,42016.00
2022-08-26T09:17:36.845Z,42176.00
2022-08-26T09:18:36.795Z,42016.00
2022-08-26T09:19:36.758Z,42048.00
2022-08-26T09:20:36.742Z,42368.00
2022-08-26T09:21:36.736Z,42240.00
2022-08-26T09:22:36.733Z,42112.00
2022-08-26T09:23:36.742Z,42656.00
2022-08-26T09:24:41.837Z,43168.00
2022-08-26T09:25:37.704Z,43200.00
2022-08-26T09:26:36.686Z,43168.00
2022-08-26T09:27:37.638Z,43648.00
2022-08-26T09:28:36.660Z,43616.00
2022-08-26T09:29:36.684Z,43776.00
2022-08-26T09:30:36.659Z,43872.00
2022-08-26T09:31:36.650Z,44064.00
2022-08-26T09:32:36.611Z,44416.00
2022-08-26T09:33:36.655Z,44640.00
2022-08-26T09:34:36.604Z,44960.00
2022-08-26T09:35:36.600Z,44768.00
2022-08-26T09:36:39.465Z,44704.00
2022-08-26T09:37:36.637Z,44800.00
2022-08-26T09:38:36.612Z,44768.00
2022-08-26T09:39:37.808Z,44704.00
2022-08-26T09:40:36.593Z,44736.00
2022-08-26T09:41:36.524Z,45152.00
2022-08-26T09:42:36.506Z,45248.00
2022-08-26T09:43:36.558Z,45344.00
2022-08-26T09:44:36.506Z,45536.00
2022-08-26T09:45:36.507Z,45600.00
2022-08-26T09:46:36.658Z,45472.00
2022-08-26T09:47:36.481Z,45440.00
2022-08-26T09:48:36.637Z,45632.00
2022-08-26T09:49:36.598Z,45280.00
2022-08-26T09:50:36.452Z,46016.00
2022-08-26T09:51:36.429Z,46208.00
2022-08-26T09:52:36.424Z,46272.00
2022-08-26T09:53:36.401Z,46496.00
2022-08-26T09:54:36.423Z,46784.00
2022-08-26T09:55:36.445Z,46368.00
2022-08-26T09:56:36.389Z,45888.00
2022-08-26T09:57:36.361Z,46560.00
2022-08-26T09:58:37.821Z,46976.00
2022-08-26T09:59:36.400Z,47104.00
2022-08-26T10:00:38.430Z,47104.00
2022-08-26T10:01:36.403Z,47136.00
2022-08-26T10:02:36.339Z,47040.00
2022-08-26T10:03:36.306Z,46752.00
2022-08-26T10:04:36.379Z,47232.00
2022-08-26T10:05:36.305Z,47616.00
2022-08-26T10:06:36.292Z,47712.00
2022-08-26T10:07:36.264Z,47936.00
2022-08-26T10:08:36.273Z,48192.00
2022-08-26T10:09:36.292Z,48128.00
2022-08-26T10:10:36.238Z,47936.00
2022-08-26T10:11:36.232Z,48000.00
2022-08-26T10:12:36.209Z,48064.00
2022-08-26T10:13:36.187Z,47936.00
2022-08-26T10:14:36.265Z,48000.00
2022-08-26T10:15:36.182Z,48096.00
2022-08-26T10:16:36.238Z,48640.00
2022-08-26T10:17:36.233Z,48608.00
2022-08-26T10:18:36.149Z,49248.00
2022-08-26T10:19:41.661Z,49312.00
2022-08-26T10:20:37.148Z,49184.00
2022-08-26T10:21:36.125Z,49120.00
2022-08-26T10:22:36.124Z,48864.00
2022-08-26T10:23:36.123Z,48480.00
2022-08-26T10:24:36.129Z,48576.00
2022-08-26T10:25:36.068Z,48672.00
2022-08-26T10:26:36.093Z,49248.00
2022-08-26T10:27:36.058Z,49312.00
2022-08-26T10:28:36.067Z,49056.00
2022-08-26T10:29:36.116Z,49376.00
2022-08-26T10:30:36.040Z,49376.00
2022-08-26T10:31:38.360Z,49856.00
2022-08-26T10:32:36.026Z,49984.00
2022-08-26T10:33:36.024Z,50016.00
2022-08-26T10:34:35.992Z,49984.00
2022-08-26T10:35:36.041Z,49120.00
2022-08-26T10:36:47.027Z,49952.00
2022-08-26T10:37:36.965Z,49824.00
2022-08-26T10:38:35.971Z,49824.00
2022-08-26T10:39:35.936Z,50144.00
2022-08-26T10:40:36.012Z,50528.00
2022-08-26T10:41:35.962Z,50816.00
2022-08-26T10:42:37.529Z,49024.00
2022-08-26T10:43:35.890Z,49632.00
2022-08-26T10:44:36.920Z,49888.00
2022-08-26T10:45:35.968Z,49184.00
2022-08-26T10:46:35.893Z,49216.00
2022-08-26T10:47:35.908Z,50272.00
2022-08-26T10:48:36.062Z,49056.00
2022-08-26T10:49:35.858Z,48000.00
2022-08-26T10:50:35.898Z,49376.00
2022-08-26T10:51:35.949Z,49696.00
2022-08-26T10:52:35.825Z,50752.00
2022-08-26T10:53:35.841Z,50944.00
2022-08-26T10:54:35.792Z,51232.00
2022-08-26T10:55:35.884Z,51648.00
2022-08-26T10:56:35.789Z,52032.00
2022-08-26T10:57:35.786Z,52576.00
2022-08-26T10:58:35.805Z,53216.00
2022-08-26T10:59:36.811Z,52896.00
2022-08-26T11:00:35.796Z,52800.00
2022-08-26T11:01:35.765Z,52928.00
2022-08-26T11:02:36.777Z,52800.00
2022-08-26T11:03:35.752Z,52736.00
2022-08-26T11:04:35.755Z,52256.00
2022-08-26T11:05:35.778Z,53504.00
2022-08-26T11:06:37.104Z,53088.00
2022-08-26T11:07:35.698Z,54272.00
2022-08-26T11:08:35.717Z,53632.00
2022-08-26T11:09:35.656Z,53952.00
2022-08-26T11:10:35.694Z,53376.00
2022-08-26T11:11:35.668Z,53824.00
2022-08-26T11:12:35.635Z,54464.00
2022-08-26T11:13:39.896Z,54624.00
2022-08-26T11:14:53.659Z,55008.00
2022-08-26T11:15:36.624Z,55008.00
2022-08-26T11:16:35.678Z,55904.00
2022-08-26T11:17:36.564Z,56416.00
2022-08-26T11:18:35.580Z,56256.00
2022-08-26T11:19:56.814Z,56448.00
2022-08-26T11:20:36.584Z,56544.00
2022-08-26T11:21:35.585Z,56736.00
2022-08-26T11:22:36.410Z,56992.00
2022-08-26T11:23:35.535Z,57216.00
2022-08-26T11:24:35.536Z,56608.00
2022-08-26T11:25:35.551Z,42720.00
2022-08-26T11:26:55.466Z,52064.00
2022-08-26T11:27:36.507Z,54368.00
2022-08-26T11:28:35.486Z,54208.00
2022-08-26T11:29:35.482Z,47072.00
2022-08-26T11:30:35.513Z,58144.00
2022-08-26T11:31:35.506Z,57312.00
2022-08-26T11:32:35.768Z,59264.00
2022-08-26T11:33:35.435Z,59104.00
2022-08-26T11:34:35.413Z,58528.00
2022-08-26T11:35:37.291Z,59616.00
2022-08-26T11:36:35.401Z,60096.00
2022-08-26T11:37:35.395Z,61216.00
2022-08-26T11:38:35.419Z,62336.00
2022-08-26T11:39:36.867Z,62976.00
2022-08-26T11:40:35.488Z,64096.00
2022-08-26T11:41:35.376Z,63776.00
2022-08-26T11:42:35.351Z,63808.00
2022-08-26T11:43:35.326Z,64704.00
2022-08-26T11:44:35.330Z,64192.00
2022-08-26T11:45:35.381Z,63968.00
2022-08-26T11:46:35.314Z,63808.00
2022-08-26T11:47:35.307Z,64320.00
2022-08-26T11:48:35.298Z,64224.00
2022-08-26T11:49:35.301Z,65472.00
2022-08-26T11:50:35.330Z,66016.00
2022-08-26T11:51:39.697Z,67520.00
2022-08-26T11:52:36.260Z,22560.00
2022-08-26T11:53:35.248Z,23008.00
2022-08-26T11:54:35.872Z,25312.00
2022-08-26T11:55:35.276Z,36736.00
2022-08-26T11:56:35.194Z,22912.00
2022-08-26T11:57:35.202Z,23104.00
2022-08-26T11:58:35.191Z,61888.00
2022-08-26T12:00:35.213Z,73600.00
2022-08-26T12:01:35.181Z,73248.00
2022-08-26T12:02:35.147Z,30176.00
2022-08-26T12:03:35.214Z,35872.00
2022-08-26T12:04:35.188Z,68672.00
2022-08-26T12:05:35.165Z,20416.00
2022-08-26T12:06:37.431Z,18944.00
2022-08-26T12:07:36.113Z,18128.00
2022-08-26T12:08:35.110Z,17968.00
2022-08-26T12:09:35.083Z,17608.00
2022-08-26T12:10:35.152Z,68448.00
2022-08-26T12:11:35.078Z,67840.00
2022-08-26T12:12:36.123Z,70272.00
2022-08-26T12:13:35.048Z,70656.00
2022-08-26T12:14:35.027Z,70912.00
2022-08-26T12:15:35.035Z,70688.00
2022-08-26T12:16:35.069Z,70464.00